Time;durP1;ratioP1;P1;durP2;ratioP2;P2;SDS_P1;SDS_P2;PMS_P1;PMS_P2;Temp;Humidity;BMP_temperature;BMP_pressure;BME280_temperature;BME280_humidity;BME280_pressure;Samples;Min_cycle;Max_cycle;Signal;HPM_P1;HPM_P2
2022/05/12 00:01:21;;;;;;;7.07;3.63;;;;;;;;;;5071446;28;20086;-65
2022/05/12 00:03:46;;;;;;;7.32;3.70;;;;;;;;;;5071543;28;20032;-65
2022/05/12 00:06:13;;;;;;;6.00;3.72;;;;;;;;;;5071608;28;20055;-66
2022/05/12 00:08:39;;;;;;;10.52;3.90;;;;;;;;;;5055639;28;20025;-64
2022/05/12 00:11:05;;;;;;;8.98;4.20;;;;;;;;;;5051728;28;20049;-65
2022/05/12 00:13:31;;;;;;;7.95;3.75;;;;;;;;;;5051365;28;20108;-64
2022/05/12 00:15:58;;;;;;;9.30;4.13;;;;;;;;;;5051079;28;20041;-65
2022/05/12 00:18:25;;;;;;;9.48;4.43;;;;;;;;;;5051047;28;20029;-64
2022/05/12 00:20:52;;;;;;;9.65;3.75;;;;;;;;;;5051278;28;20098;-66
2022/05/12 00:23:28;;;;;;;6.80;3.97;;;;;;;;;;5051576;28;20025;-65
2022/05/12 00:25:55;;;;;;;9.60;3.88;;;;;;;;;;5051442;28;20064;-64
2022/05/12 00:28:23;;;;;;;15.80;4.63;;;;;;;;;;5051148;28;20048;-64
2022/05/12 00:30:52;;;;;;;9.68;3.90;;;;;;;;;;5054833;28;20082;-65
2022/05/12 00:33:20;;;;;;;9.70;4.30;;;;;;;;;;5055375;28;20051;-65
2022/05/12 00:35:47;;;;;;;8.18;3.97;;;;;;;;;;5055410;28;20106;-65
2022/05/12 00:38:13;;;;;;;6.95;3.65;;;;;;;;;;5055050;28;20029;-65
2022/05/12 00:40:42;;;;;;;15.57;4.82;;;;;;;;;;5055678;28;20222;-65
2022/05/12 00:43:35;;;;;;;12.32;4.38;;;;;;;;;;5055610;28;20104;-65
2022/05/12 00:46:03;;;;;;;7.82;3.75;;;;;;;;;;5054942;28;20392;-65
2022/05/12 00:48:28;;;;;;;11.00;3.72;;;;;;;;;;5055122;28;20036;-65
2022/05/12 00:50:54;;;;;;;11.23;4.72;;;;;;;;;;5065897;28;20025;-64
2022/05/12 00:53:21;;;;;;;10.63;4.53;;;;;;;;;;5075029;28;20021;-66
2022/05/12 00:55:47;;;;;;;7.93;4.30;;;;;;;;;;5075097;28;20066;-66
2022/05/12 00:58:16;;;;;;;12.60;4.03;;;;;;;;;;5075206;28;20101;-67
2022/05/12 01:00:43;;;;;;;8.73;4.30;;;;;;;;;;5077593;28;20036;-70
2022/05/12 01:03:16;;;;;;;9.18;4.47;;;;;;;;;;5074310;28;20028;-65
2022/05/12 01:05:42;;;;;;;9.02;4.28;;;;;;;;;;5073530;28;20032;-65
2022/05/12 01:08:10;;;;;;;13.13;5.38;;;;;;;;;;5070485;28;20417;-65
2022/05/12 01:10:39;;;;;;;11.55;5.30;;;;;;;;;;5074740;28;20044;-65
2022/05/12 01:13:05;;;;;;;15.90;5.00;;;;;;;;;;5074932;28;20036;-65
2022/05/12 01:15:31;;;;;;;13.57;4.88;;;;;;;;;;5074402;28;20033;-65
2022/05/12 01:18:10;;;;;;;13.75;4.93;;;;;;;;;;5074350;28;20082;-65
2022/05/12 01:20:39;;;;;;;10.32;4.80;;;;;;;;;;5074854;28;20633;-65
2022/05/12 01:23:25;;;;;;;8.98;4.28;;;;;;;;;;5074586;28;20104;-64
2022/05/12 01:26:01;;;;;;;9.00;4.07;;;;;;;;;;5074080;28;20032;-65
2022/05/12 01:28:28;;;;;;;8.57;4.50;;;;;;;;;;5074373;28;20033;-65
2022/05/12 01:30:54;;;;;;;9.13;4.38;;;;;;;;;;5074521;28;20029;-65
2022/05/12 01:33:21;;;;;;;15.75;4.57;;;;;;;;;;5074482;28;20037;-65
2022/05/12 01:35:47;;;;;;;12.52;4.20;;;;;;;;;;5073913;28;20111;-65
2022/05/12 01:38:13;;;;;;;10.82;4.47;;;;;;;;;;5073910;28;20388;-66
2022/05/12 01:40:40;;;;;;;8.32;4.75;;;;;;;;;;5073599;28;20352;-65
2022/05/12 01:43:06;;;;;;;6.75;4.18;;;;;;;;;;5073937;28;20509;-65
2022/05/12 01:45:33;;;;;;;7.05;4.22;;;;;;;;;;5073784;28;20504;-65
2022/05/12 01:47:59;;;;;;;7.47;4.05;;;;;;;;;;5073674;28;20032;-64
2022/05/12 01:50:25;;;;;;;9.82;4.60;;;;;;;;;;5073795;28;20036;-65
2022/05/12 01:52:51;;;;;;;10.20;4.28;;;;;;;;;;5074194;28;20040;-66
2022/05/12 01:55:20;;;;;;;7.18;4.03;;;;;;;;;;5073846;28;20422;-65
2022/05/12 01:57:46;;;;;;;7.57;4.35;;;;;;;;;;5073685;28;20059;-67
2022/05/12 02:00:17;;;;;;;12.02;4.63;;;;;;;;;;5073906;28;20036;-67
2022/05/12 02:02:43;;;;;;;7.60;4.35;;;;;;;;;;5073722;28;20123;-65
2022/05/12 02:05:10;;;;;;;8.95;4.20;;;;;;;;;;5074121;28;20159;-65
2022/05/12 02:07:40;;;;;;;10.77;4.45;;;;;;;;;;5073689;28;20032;-65
2022/05/12 02:10:09;;;;;;;6.68;4.05;;;;;;;;;;5073553;28;20355;-64
2022/05/12 02:12:34;;;;;;;12.20;5.38;;;;;;;;;;5058961;28;20512;-64
2022/05/12 02:15:01;;;;;;;9.50;4.53;;;;;;;;;;5059442;28;20107;-65
2022/05/12 02:17:26;;;;;;;9.65;4.57;;;;;;;;;;5073701;28;20031;-65
2022/05/12 02:19:52;;;;;;;7.45;4.55;;;;;;;;;;5073792;28;20390;-66
2022/05/12 02:22:18;;;;;;;7.50;4.35;;;;;;;;;;5073112;28;20036;-65
2022/05/12 02:24:45;;;;;;;16.00;5.63;;;;;;;;;;5073259;28;20043;-64
2022/05/12 02:27:12;;;;;;;16.73;4.93;;;;;;;;;;5073229;28;20468;-65
2022/05/12 02:29:37;;;;;;;10.25;5.28;;;;;;;;;;5073376;28;20096;-64
2022/05/12 02:32:03;;;;;;;8.75;5.43;;;;;;;;;;5072563;28;20048;-64
2022/05/12 02:34:29;;;;;;;14.02;5.63;;;;;;;;;;5053364;28;20029;-65
2022/05/12 02:37:01;;;;;;;12.15;5.32;;;;;;;;;;5053022;28;20036;-64
2022/05/12 02:39:35;;;;;;;16.75;5.38;;;;;;;;;;5052968;28;20040;-65
2022/05/12 02:42:01;;;;;;;10.25;4.90;;;;;;;;;;5052713;28;20534;-64
2022/05/12 02:44:28;;;;;;;9.68;4.68;;;;;;;;;;5052258;28;20436;-63
2022/05/12 02:46:54;;;;;;;8.07;4.20;;;;;;;;;;5054350;28;20080;-64
2022/05/12 02:49:19;;;;;;;11.98;5.03;;;;;;;;;;5059658;28;20044;-65
2022/05/12 02:51:47;;;;;;;12.00;4.50;;;;;;;;;;5052087;28;20147;-66
2022/05/12 02:54:14;;;;;;;13.52;5.28;;;;;;;;;;5052683;28;20391;-65
2022/05/12 02:56:40;;;;;;;12.00;4.80;;;;;;;;;;5052445;28;20435;-65
2022/05/12 02:59:07;;;;;;;10.35;4.90;;;;;;;;;;5052770;28;20132;-65
2022/05/12 03:01:33;;;;;;;8.75;4.93;;;;;;;;;;5052297;28;20029;-64
2022/05/12 03:03:59;;;;;;;10.93;5.18;;;;;;;;;;5052322;28;20029;-64
2022/05/12 03:06:25;;;;;;;13.20;5.43;;;;;;;;;;5052610;28;20032;-64
2022/05/12 03:08:51;;;;;;;16.05;5.50;;;;;;;;;;5052741;28;20028;-64
2022/05/12 03:11:17;;;;;;;16.98;5.20;;;;;;;;;;5052800;28;20182;-64
2022/05/12 03:13:43;;;;;;;10.13;4.82;;;;;;;;;;5052347;28;20514;-64
2022/05/12 03:16:10;;;;;;;9.48;5.45;;;;;;;;;;5052286;28;20485;-64
2022/05/12 03:18:37;;;;;;;17.75;5.70;;;;;;;;;;5052399;28;20467;-64
2022/05/12 03:21:03;;;;;;;14.32;5.88;;;;;;;;;;5051757;28;20080;-63
2022/05/12 03:23:29;;;;;;;10.35;4.97;;;;;;;;;;5052034;28;20065;-63
2022/05/12 03:25:55;;;;;;;13.73;5.32;;;;;;;;;;5051663;28;20028;-63
2022/05/12 03:28:21;;;;;;;9.48;5.50;;;;;;;;;;5051853;28;20773;-64
2022/05/12 03:30:48;;;;;;;12.90;5.25;;;;;;;;;;5051759;28;20037;-68
2022/05/12 03:33:14;;;;;;;13.02;5.75;;;;;;;;;;5051857;28;20025;-65
2022/05/12 03:35:40;;;;;;;17.65;8.40;;;;;;;;;;5051682;28;20079;-64
2022/05/12 03:38:06;;;;;;;10.05;5.68;;;;;;;;;;5051486;28;20495;-64
2022/05/12 03:40:32;;;;;;;17.50;5.35;;;;;;;;;;5051556;28;20123;-65
2022/05/12 03:42:58;;;;;;;13.32;5.80;;;;;;;;;;5051638;28;20850;-64
2022/05/12 03:45:26;;;;;;;17.98;6.07;;;;;;;;;;5052448;28;20112;-64
2022/05/12 03:47:52;;;;;;;14.95;5.60;;;;;;;;;;5051306;28;20021;-65
2022/05/12 03:50:21;;;;;;;17.25;6.30;;;;;;;;;;5051467;28;20032;-65
2022/05/12 03:52:48;;;;;;;14.20;6.30;;;;;;;;;;5067062;28;20021;-65
2022/05/12 03:55:16;;;;;;;11.32;4.85;;;;;;;;;;5050967;28;20093;-65
2022/05/12 03:57:44;;;;;;;18.35;5.72;;;;;;;;;;5050943;28;20535;-65
2022/05/12 04:00:20;;;;;;;13.60;5.70;;;;;;;;;;5051485;28;20029;-64
2022/05/12 04:02:47;;;;;;;19.20;6.70;;;;;;;;;;5051764;28;20033;-65
2022/05/12 04:05:14;;;;;;;24.27;6.25;;;;;;;;;;5074048;28;20034;-64
2022/05/12 04:07:42;;;;;;;32.20;7.35;;;;;;;;;;5077682;28;20103;-64
2022/05/12 04:10:09;;;;;;;22.08;6.53;;;;;;;;;;5077849;28;20021;-65
2022/05/12 04:12:35;;;;;;;22.67;6.63;;;;;;;;;;5077388;28;20047;-66
2022/05/12 04:15:01;;;;;;;22.77;7.80;;;;;;;;;;5077784;28;20021;-65
2022/05/12 04:17:27;;;;;;;26.95;7.38;;;;;;;;;;5077604;28;20043;-65
2022/05/12 04:19:52;;;;;;;21.08;7.85;;;;;;;;;;5076406;28;20031;-64
2022/05/12 04:22:19;;;;;;;26.33;7.22;;;;;;;;;;5077481;28;20054;-67
2022/05/12 04:24:45;;;;;;;17.98;5.88;;;;;;;;;;5077897;28;20020;-66
2022/05/12 04:27:12;;;;;;;11.50;5.43;;;;;;;;;;5077575;28;20483;-65
2022/05/12 04:29:42;;;;;;;10.77;5.50;;;;;;;;;;5077903;28;20450;-67
2022/05/12 04:32:09;;;;;;;20.95;6.38;;;;;;;;;;5069975;28;20041;-65
2022/05/12 04:37:29;;;;;;;14.30;6.85;;;;;;;;;;5057471;28;20395;-66
2022/05/12 04:40:02;;;;;;;11.35;6.18;;;;;;;;;;5057311;28;20037;-67
2022/05/12 04:42:28;;;;;;;;;;;;;;;;;;5057754;28;20036;-66
2022/05/12 04:44:54;;;;;;;12.85;5.55;;;;;;;;;;5057558;28;19913;-65
2022/05/12 04:47:19;;;;;;;14.80;5.28;;;;;;;;;;5057452;28;20116;-65
2022/05/12 04:49:46;;;;;;;19.75;6.82;;;;;;;;;;5057161;28;20387;-65
2022/05/12 04:52:12;;;;;;;12.13;5.05;;;;;;;;;;5064504;28;20043;-66
2022/05/12 04:54:38;;;;;;;15.63;6.32;;;;;;;;;;5075610;28;20035;-66
2022/05/12 04:57:04;;;;;;;23.10;6.35;;;;;;;;;;5058335;28;20120;-66
2022/05/12 04:59:32;;;;;;;9.13;5.65;;;;;;;;;;5057175;28;20037;-66
2022/05/12 05:01:58;;;;;;;16.23;5.85;;;;;;;;;;5056549;28;20057;-66
2022/05/12 05:04:24;;;;;;;19.35;5.90;;;;;;;;;;5056557;28;20413;-66
2022/05/12 05:06:50;;;;;;;12.68;5.97;;;;;;;;;;5058781;28;20052;-65
2022/05/12 05:09:16;;;;;;;11.90;5.20;;;;;;;;;;5057758;28;20056;-66
2022/05/12 05:11:42;;;;;;;11.23;5.57;;;;;;;;;;5058699;28;20041;-65
2022/05/12 05:14:07;;;;;;;11.20;4.68;;;;;;;;;;5058348;28;20046;-65
2022/05/12 05:16:33;;;;;;;13.82;5.95;;;;;;;;;;5053863;28;20025;-66
2022/05/12 05:18:59;;;;;;;12.05;5.50;;;;;;;;;;5055230;28;20129;-67
2022/05/12 05:21:25;;;;;;;15.68;5.70;;;;;;;;;;5054639;28;20134;-66
2022/05/12 05:23:51;;;;;;;14.68;5.82;;;;;;;;;;5054733;28;20071;-67
2022/05/12 05:26:18;;;;;;;10.35;4.68;;;;;;;;;;5053211;28;20037;-66
2022/05/12 05:28:44;;;;;;;10.48;5.38;;;;;;;;;;5055055;28;20017;-66
2022/05/12 05:31:10;;;;;;;13.63;5.93;;;;;;;;;;5065769;28;20054;-66
2022/05/12 05:33:36;;;;;;;10.77;5.45;;;;;;;;;;5054699;28;20032;-66
2022/05/12 05:36:02;;;;;;;15.93;5.97;;;;;;;;;;5054422;28;20037;-66
2022/05/12 05:38:28;;;;;;;17.02;6.85;;;;;;;;;;5054784;28;20029;-67
2022/05/12 05:40:54;;;;;;;19.30;6.05;;;;;;;;;;5054663;28;20065;-66
2022/05/12 05:43:21;;;;;;;10.70;5.55;;;;;;;;;;5054841;28;20059;-73
2022/05/12 05:45:47;;;;;;;14.07;5.80;;;;;;;;;;5054584;28;20120;-65
2022/05/12 05:48:13;;;;;;;11.85;5.82;;;;;;;;;;5054646;28;20025;-66
2022/05/12 05:53:28;;;;;;;16.42;5.70;;;;;;;;;;5053839;28;20122;-71
2022/05/12 05:55:57;;;;;;;13.15;5.88;;;;;;;;;;5053978;28;20385;-70
2022/05/12 05:58:24;;;;;;;9.60;5.35;;;;;;;;;;5054218;28;20452;-71
2022/05/12 06:00:50;;;;;;;11.90;5.50;;;;;;;;;;5054184;28;20029;-71
2022/05/12 06:03:17;;;;;;;11.57;5.63;;;;;;;;;;5054110;28;20033;-71
2022/05/12 06:05:43;;;;;;;11.63;5.68;;;;;;;;;;5053910;28;20074;-70
2022/05/12 06:08:12;;;;;;;11.73;5.60;;;;;;;;;;5054035;28;20041;-70
2022/05/12 06:10:38;;;;;;;11.65;5.60;;;;;;;;;;5053470;28;20486;-70
2022/05/12 06:13:05;;;;;;;14.45;5.63;;;;;;;;;;5053607;28;20087;-70
2022/05/12 06:15:30;;;;;;;13.30;5.95;;;;;;;;;;5053750;28;20057;-72
2022/05/12 06:17:56;;;;;;;15.65;5.72;;;;;;;;;;5053789;28;20071;-72
2022/05/12 06:20:23;;;;;;;11.50;6.40;;;;;;;;;;5053946;28;20050;-70
2022/05/12 06:22:50;;;;;;;14.98;6.05;;;;;;;;;;5063837;28;20064;-71
2022/05/12 06:25:17;;;;;;;17.02;6.45;;;;;;;;;;5079522;28;20029;-70
2022/05/12 06:27:44;;;;;;;16.35;6.20;;;;;;;;;;5064379;28;20170;-72
2022/05/12 06:30:13;;;;;;;13.82;5.70;;;;;;;;;;5066881;28;20428;-70
2022/05/12 06:32:40;;;;;;;16.20;6.15;;;;;;;;;;5072002;28;20039;-69
2022/05/12 06:35:08;;;;;;;19.15;6.93;;;;;;;;;;5072766;28;20114;-71
2022/05/12 06:37:35;;;;;;;14.75;5.80;;;;;;;;;;5072576;28;20038;-71
2022/05/12 06:40:02;;;;;;;17.25;5.68;;;;;;;;;;5072058;28;20052;-71
2022/05/12 06:42:27;;;;;;;7.90;5.57;;;;;;;;;;5071456;28;20044;-71
2022/05/12 06:44:59;;;;;;;12.57;5.78;;;;;;;;;;5070893;28;20032;-70
2022/05/12 06:47:25;;;;;;;14.52;5.97;;;;;;;;;;5071272;28;20554;-71
2022/05/12 06:49:52;;;;;;;15.18;6.10;;;;;;;;;;5074623;28;20059;-70
2022/05/12 06:52:19;;;;;;;22.55;6.18;;;;;;;;;;5072044;28;20435;-70
2022/05/12 06:54:45;;;;;;;16.40;6.13;;;;;;;;;;5069837;28;20387;-71
2022/05/12 06:57:19;;;;;;;10.52;5.75;;;;;;;;;;5071710;28;20388;-70
2022/05/12 06:59:44;;;;;;;15.82;5.60;;;;;;;;;;5072560;28;20037;-69
2022/05/12 07:02:10;;;;;;;12.30;6.07;;;;;;;;;;5070952;28;20032;-69
2022/05/12 07:04:36;;;;;;;17.48;5.72;;;;;;;;;;5071248;28;20388;-69
2022/05/12 07:07:03;;;;;;;14.70;5.55;;;;;;;;;;5071364;28;20028;-70
2022/05/12 07:09:30;;;;;;;12.88;5.47;;;;;;;;;;5071084;28;20096;-69
2022/05/12 07:11:56;;;;;;;13.50;5.35;;;;;;;;;;5071616;28;20040;-72
2022/05/12 07:14:22;;;;;;;13.95;5.85;;;;;;;;;;5071778;28;20456;-70
2022/05/12 07:16:48;;;;;;;8.88;4.93;;;;;;;;;;5070488;28;20042;-69
2022/05/12 07:19:15;;;;;;;11.20;5.10;;;;;;;;;;5071251;28;20033;-70
2022/05/12 07:27:16;;;;;;;10.25;5.38;;;;;;;;;;5071299;28;20029;-70
2022/05/12 07:29:43;;;;;;;13.40;4.93;;;;;;;;;;5071150;28;20467;-69
2022/05/12 07:32:08;;;;;;;13.40;4.60;;;;;;;;;;5070997;28;20039;-70
2022/05/12 07:34:35;;;;;;;14.35;5.05;;;;;;;;;;5070493;28;20033;-71
2022/05/12 07:37:01;;;;;;;8.13;4.50;;;;;;;;;;5071400;28;20036;-70
2022/05/12 07:39:29;;;;;;;17.52;4.45;;;;;;;;;;5070757;28;20047;-75
2022/05/12 07:41:56;;;;;;;10.10;4.10;;;;;;;;;;5071300;28;20435;-73
2022/05/12 07:44:29;;;;;;;7.80;4.07;;;;;;;;;;5071044;28;20025;-70
2022/05/12 07:46:55;;;;;;;;;;;;;;;;;;5070870;28;20039;-71
2022/05/12 07:49:21;;;;;;;8.52;4.28;;;;;;;;;;5070046;28;19912;-71
2022/05/12 07:51:47;;;;;;;10.95;3.95;;;;;;;;;;5070827;28;20024;-71
2022/05/12 07:54:12;;;;;;;10.30;4.32;;;;;;;;;;5070541;28;20075;-71
2022/05/12 07:56:38;;;;;;;11.10;5.15;;;;;;;;;;5070301;28;20399;-71
2022/05/12 07:59:05;;;;;;;8.15;4.35;;;;;;;;;;5070116;28;20123;-71
2022/05/12 08:01:31;;;;;;;7.40;4.38;;;;;;;;;;5068623;28;20770;-71
2022/05/12 08:03:57;;;;;;;12.05;4.35;;;;;;;;;;5069269;28;20017;-71
2022/05/12 08:06:23;;;;;;;8.52;4.22;;;;;;;;;;5069255;28;20033;-70
2022/05/12 08:08:50;;;;;;;8.80;4.65;;;;;;;;;;5085872;28;20495;-70
2022/05/12 08:11:18;;;;;;;7.25;3.90;;;;;;;;;;5070205;28;20032;-71
2022/05/12 08:13:46;;;;;;;7.80;4.18;;;;;;;;;;5068784;28;20099;-72
2022/05/12 08:16:15;;;;;;;7.88;4.18;;;;;;;;;;5071247;28;20438;-71
2022/05/12 08:18:42;;;;;;;9.32;4.43;;;;;;;;;;5071207;28;20021;-72
2022/05/12 08:21:08;;;;;;;7.90;3.55;;;;;;;;;;5070457;28;20086;-72
2022/05/12 08:23:34;;;;;;;6.18;3.72;;;;;;;;;;5070315;28;20021;-71
2022/05/12 08:26:02;;;;;;;7.07;4.13;;;;;;;;;;5071492;28;20471;-71
2022/05/12 08:28:28;;;;;;;7.13;3.47;;;;;;;;;;5072495;28;20413;-71
2022/05/12 08:30:54;;;;;;;9.43;3.58;;;;;;;;;;5072353;28;20119;-72
2022/05/12 08:33:23;;;;;;;9.43;3.95;;;;;;;;;;5071360;28;20412;-72
2022/05/12 08:35:50;;;;;;;9.05;3.72;;;;;;;;;;5071417;28;20043;-71
2022/05/12 08:38:17;;;;;;;10.45;4.40;;;;;;;;;;5071419;28;20043;-70
2022/05/12 08:40:58;;;;;;;9.70;4.13;;;;;;;;;;5071938;28;20040;-72
2022/05/12 08:43:45;;;;;;;5.82;3.65;;;;;;;;;;5077259;28;20146;-72
2022/05/12 08:46:20;;;;;;;14.75;10.80;;;;;;;;;;5071683;28;20036;-71
2022/05/12 08:48:48;;;;;;;8.20;4.18;;;;;;;;;;5071216;28;20036;-72
2022/05/12 08:51:17;;;;;;;5.93;3.58;;;;;;;;;;5073260;28;20025;-73
2022/05/12 08:54:09;;;;;;;7.90;3.55;;;;;;;;;;5074889;28;20036;-76
2022/05/12 08:56:35;;;;;;;7.60;4.03;;;;;;;;;;5074691;28;20056;-71
2022/05/12 08:59:02;;;;;;;7.50;3.17;;;;;;;;;;5074939;28;20032;-73
2022/05/12 09:01:42;;;;;;;8.82;3.28;;;;;;;;;;5074513;28;20518;-71
2022/05/12 09:04:32;;;;;;;7.72;3.60;;;;;;;;;;5074777;28;20051;-73
2022/05/12 09:07:09;;;;;;;9.13;4.10;;;;;;;;;;5074562;28;20044;-76
2022/05/12 09:09:54;;;;;;;6.97;3.67;;;;;;;;;;5074505;28;20039;-72
2022/05/12 09:12:27;;;;;;;10.20;3.40;;;;;;;;;;5074624;28;20051;-75
2022/05/12 09:15:35;;;;;;;10.65;3.85;;;;;;;;;;5074619;28;20033;-71
2022/05/12 09:18:05;;;;;;;13.80;4.25;;;;;;;;;;5092058;28;20136;-72
2022/05/12 09:20:34;;;;;;;8.73;3.25;;;;;;;;;;5092119;28;20024;-74
2022/05/12 09:23:01;;;;;;;6.78;3.13;;;;;;;;;;5082265;28;20503;-75
2022/05/12 09:25:36;;;;;;;6.00;3.03;;;;;;;;;;5074602;28;20043;-76
2022/05/12 09:28:30;;;;;;;5.78;3.70;;;;;;;;;;5074483;28;20425;-75
2022/05/12 09:31:17;;;;;;;4.22;3.20;;;;;;;;;;5076180;28;20072;-74
2022/05/12 09:33:49;;;;;;;6.50;3.53;;;;;;;;;;5074400;28;20032;-74
2022/05/12 09:36:23;;;;;;;7.77;3.70;;;;;;;;;;5074353;28;20111;-72
2022/05/12 09:38:54;;;;;;;9.15;4.30;;;;;;;;;;5074083;28;20036;-75
2022/05/12 09:41:44;;;;;;;10.48;3.40;;;;;;;;;;5074177;28;20475;-71
2022/05/12 09:44:20;;;;;;;9.77;3.03;;;;;;;;;;5074209;28;20032;-75
2022/05/12 09:47:16;;;;;;;6.32;3.20;;;;;;;;;;5073888;28;20122;-71
2022/05/12 09:49:44;;;;;;;6.45;3.42;;;;;;;;;;5062958;28;20067;-71
2022/05/12 09:52:22;;;;;;;8.73;3.63;;;;;;;;;;5073215;28;20467;-74
2022/05/12 09:54:48;;;;;;;9.10;4.13;;;;;;;;;;5070624;28;20542;-72
2022/05/12 09:57:26;;;;;;;9.32;3.45;;;;;;;;;;5063529;28;20044;-76
2022/05/12 09:59:57;;;;;;;5.60;3.30;;;;;;;;;;5054459;28;20112;-71
2022/05/12 10:08:04;;;;;;;6.35;2.80;;;;;;;;;;5053308;28;20033;-75
2022/05/12 10:10:30;;;;;;;4.90;2.83;;;;;;;;;;5057021;28;20039;-75
2022/05/12 10:12:57;;;;;;;4.07;2.55;;;;;;;;;;5066954;28;20430;-72
2022/05/12 10:15:29;;;;;;;8.45;2.80;;;;;;;;;;5054640;28;20106;-73
2022/05/12 10:17:59;;;;;;;;;;;;;;;;;;5053069;28;20112;-70
2022/05/12 10:20:28;;;;;;;4.60;2.85;;;;;;;;;;5054248;28;20313;-69
2022/05/12 10:23:22;;;;;;;5.05;2.78;;;;;;;;;;5071779;28;20487;-72
2022/05/12 10:25:58;;;;;;;4.90;2.45;;;;;;;;;;5073421;28;20047;-72
2022/05/12 10:28:50;;;;;;;3.40;2.30;;;;;;;;;;5071550;28;20028;-75
2022/05/12 10:31:22;;;;;;;5.07;2.58;;;;;;;;;;5063507;28;20025;-71
2022/05/12 10:34:00;;;;;;;7.15;3.20;;;;;;;;;;5051835;28;20403;-72
2022/05/12 10:36:49;;;;;;;5.22;2.90;;;;;;;;;;5052955;28;20051;-70
2022/05/12 10:40:00;;;;;;;5.72;2.60;;;;;;;;;;5052785;28;20059;-72
2022/05/12 10:42:57;;;;;;;11.52;3.08;;;;;;;;;;5051603;28;20058;-73
2022/05/12 10:45:37;;;;;;;6.47;2.70;;;;;;;;;;5052391;28;20033;-73
2022/05/12 10:48:11;;;;;;;5.00;2.65;;;;;;;;;;5052017;28;20033;-72
2022/05/12 10:50:55;;;;;;;6.55;3.03;;;;;;;;;;5063345;28;20025;-72
2022/05/12 10:53:32;;;;;;;6.43;2.85;;;;;;;;;;5069534;28;20053;-74
2022/05/12 10:56:24;;;;;;;5.35;2.75;;;;;;;;;;5068143;28;20123;-72
2022/05/12 10:59:07;;;;;;;7.82;2.65;;;;;;;;;;5070820;28;20474;-73
2022/05/12 11:01:35;;;;;;;;;;;;;;;;;;5071951;28;20047;-75
2022/05/12 11:04:11;;;;;;;5.45;2.78;;;;;;;;;;5072821;28;20342;-71
2022/05/12 11:06:42;;;;;;;6.07;2.80;;;;;;;;;;5071919;28;20119;-72
2022/05/12 11:09:39;;;;;;;5.35;2.88;;;;;;;;;;5071564;28;20032;-73
2022/05/12 11:12:17;;;;;;;5.25;2.72;;;;;;;;;;5071194;28;20057;-74
2022/05/12 11:15:05;;;;;;;4.07;2.63;;;;;;;;;;5071789;28;20111;-73
2022/05/12 11:17:41;;;;;;;6.75;2.95;;;;;;;;;;5072206;28;20058;-71
2022/05/12 11:20:18;;;;;;;4.00;2.47;;;;;;;;;;5069023;28;20631;-75
2022/05/12 11:23:12;;;;;;;4.32;2.50;;;;;;;;;;5071207;28;20060;-72
2022/05/12 11:26:00;;;;;;;4.88;2.70;;;;;;;;;;5071549;28;20467;-71
2022/05/12 11:32:00;;;;;;;5.55;2.80;;;;;;;;;;5072350;28;20032;-70
2022/05/12 11:34:27;;;;;;;4.13;2.47;;;;;;;;;;5043978;28;20091;-73
2022/05/12 11:36:55;;;;;;;8.90;2.80;;;;;;;;;;5052277;28;20096;-72
2022/05/12 11:39:51;;;;;;;4.80;3.08;;;;;;;;;;5054107;28;20086;-73
2022/05/12 11:46:22;;;;;;;7.75;2.70;;;;;;;;;;5059236;28;20121;-74
2022/05/12 11:49:08;;;;;;;8.43;2.70;;;;;;;;;;5072498;28;20036;-74
2022/05/12 11:51:44;;;;;;;5.45;2.70;;;;;;;;;;5071970;28;20055;-73
2022/05/12 11:54:21;;;;;;;4.88;2.35;;;;;;;;;;5072041;28;20055;-70
2022/05/12 11:56:49;;;;;;;7.53;3.50;;;;;;;;;;5072153;28;20059;-73
2022/05/12 11:59:24;;;;;;;3.83;2.50;;;;;;;;;;5072111;28;20047;-71
2022/05/12 12:01:56;;;;;;;4.60;2.45;;;;;;;;;;5072276;28;20037;-77
2022/05/12 12:04:37;;;;;;;7.40;2.80;;;;;;;;;;5072522;28;20144;-72
2022/05/12 12:07:06;;;;;;;3.65;2.60;;;;;;;;;;5072644;28;20392;-71
2022/05/12 12:09:35;;;;;;;6.00;2.33;;;;;;;;;;5072548;28;20092;-73
2022/05/12 12:12:09;;;;;;;4.72;2.65;;;;;;;;;;5071642;28;20029;-70
2022/05/12 12:14:50;;;;;;;4.70;2.60;;;;;;;;;;5072118;28;20055;-71
2022/05/12 12:17:44;;;;;;;6.07;2.80;;;;;;;;;;5071900;28;20028;-73
2022/05/12 12:20:30;;;;;;;5.45;3.22;;;;;;;;;;5071049;28;20041;-73
2022/05/12 12:22:57;;;;;;;4.68;3.05;;;;;;;;;;5071617;28;20093;-72
2022/05/12 12:25:36;;;;;;;8.93;2.83;;;;;;;;;;5074749;28;20081;-75
2022/05/12 12:28:14;;;;;;;4.40;2.50;;;;;;;;;;5074968;28;20035;-70
2022/05/12 12:30:58;;;;;;;11.10;5.60;;;;;;;;;;5076231;28;20040;-71
2022/05/12 12:33:31;;;;;;;5.18;2.47;;;;;;;;;;5077109;28;20033;-71
2022/05/12 12:36:05;;;;;;;6.35;2.97;;;;;;;;;;5079407;28;20032;-71
2022/05/12 12:38:47;;;;;;;6.18;3.05;;;;;;;;;;5076155;28;20447;-73
2022/05/12 12:41:33;;;;;;;6.45;2.67;;;;;;;;;;5076095;28;20032;-70
2022/05/12 12:44:04;;;;;;;5.82;2.80;;;;;;;;;;5075955;28;20035;-72
2022/05/12 12:46:43;;;;;;;6.95;3.50;;;;;;;;;;5075714;28;20024;-71
2022/05/12 12:49:13;;;;;;;6.53;2.80;;;;;;;;;;5075520;28;20475;-70
2022/05/12 12:51:40;;;;;;;8.30;3.33;;;;;;;;;;5075528;28;20033;-76
2022/05/12 12:57:11;;;;;;;8.60;3.17;;;;;;;;;;5074991;28;20394;-71
2022/05/12 12:59:45;;;;;;;5.40;2.30;;;;;;;;;;5074915;28;20043;-68
2022/05/12 13:02:41;;;;;;;6.10;2.45;;;;;;;;;;5074540;28;20036;-71
2022/05/12 13:05:11;;;;;;;5.72;2.45;;;;;;;;;;5074587;28;20039;-70
2022/05/12 13:07:39;;;;;;;10.38;2.55;;;;;;;;;;5075183;28;20153;-69
2022/05/12 13:10:09;;;;;;;6.97;3.08;;;;;;;;;;5075273;28;20124;-68
2022/05/12 13:12:36;;;;;;;4.97;3.10;;;;;;;;;;5075492;28;20115;-68
2022/05/12 13:15:13;;;;;;;8.77;2.72;;;;;;;;;;5075364;28;20028;-69
2022/05/12 13:17:46;;;;;;;4.35;2.80;;;;;;;;;;5075251;28;20060;-71
2022/05/12 13:20:17;;;;;;;;;;;;;;;;;;5074530;28;20468;-72
2022/05/12 13:23:08;;;;;;;5.18;2.55;;;;;;;;;;5075156;28;20003;-70
2022/05/12 13:25:37;;;;;;;9.75;2.97;;;;;;;;;;5075281;28;20032;-68
2022/05/12 13:28:07;;;;;;;4.47;2.72;;;;;;;;;;5074987;28;20051;-69
2022/05/12 13:30:46;;;;;;;5.55;2.58;;;;;;;;;;5075171;28;20044;-70
2022/05/12 13:33:27;;;;;;;8.15;2.70;;;;;;;;;;5075188;28;20387;-68
2022/05/12 13:36:00;;;;;;;4.95;2.55;;;;;;;;;;5064102;28;20036;-73
2022/05/12 13:38:32;;;;;;;5.20;2.58;;;;;;;;;;5075042;28;20036;-69
2022/05/12 13:41:00;;;;;;;4.28;2.85;;;;;;;;;;5074941;28;20497;-72
2022/05/12 13:43:39;;;;;;;7.15;2.72;;;;;;;;;;5074771;28;20074;-70
2022/05/12 13:46:10;;;;;;;3.28;2.15;;;;;;;;;;5074533;28;20419;-70
2022/05/12 13:48:57;;;;;;;5.38;2.70;;;;;;;;;;5066138;28;20560;-71
2022/05/12 13:51:40;;;;;;;4.03;2.40;;;;;;;;;;5054688;28;20090;-70
2022/05/12 13:54:08;;;;;;;5.00;2.80;;;;;;;;;;5054793;28;20391;-68
2022/05/12 13:56:39;;;;;;;7.70;3.17;;;;;;;;;;5072983;28;20127;-69
2022/05/12 13:59:29;;;;;;;8.13;3.15;;;;;;;;;;5074449;28;20123;-70
2022/05/12 14:02:18;;;;;;;4.93;2.67;;;;;;;;;;5074500;28;20028;-70
2022/05/12 14:04:44;;;;;;;5.07;2.72;;;;;;;;;;5074572;28;20032;-70
2022/05/12 14:07:12;;;;;;;6.38;2.85;;;;;;;;;;5074277;28;20386;-70
2022/05/12 14:09:56;;;;;;;5.78;3.00;;;;;;;;;;5073964;28;20033;-71
2022/05/12 14:12:28;;;;;;;6.88;2.72;;;;;;;;;;5074295;28;20032;-71
2022/05/12 14:20:29;;;;;;;3.85;2.65;;;;;;;;;;5074065;28;20028;-70
2022/05/12 14:22:55;;;;;;;6.15;2.78;;;;;;;;;;5073920;28;20024;-71
2022/05/12 14:25:24;;;;;;;4.63;2.70;;;;;;;;;;5073861;28;20037;-73
2022/05/12 14:27:51;;;;;;;4.25;2.83;;;;;;;;;;5073798;28;20524;-73
2022/05/12 14:30:17;;;;;;;10.35;2.75;;;;;;;;;;5073828;28;20040;-72
2022/05/12 14:32:50;;;;;;;5.18;2.70;;;;;;;;;;5073658;28;20021;-72
2022/05/12 14:35:27;;;;;;;4.65;2.88;;;;;;;;;;5073707;28;20036;-72
2022/05/12 14:37:54;;;;;;;3.40;2.20;;;;;;;;;;5059150;28;20033;-73
2022/05/12 14:40:23;;;;;;;8.13;2.70;;;;;;;;;;5054140;28;20025;-75
2022/05/12 14:42:50;;;;;;;4.72;2.67;;;;;;;;;;5053384;28;20029;-72
2022/05/12 14:45:17;;;;;;;6.53;2.65;;;;;;;;;;5053691;28;20041;-71
2022/05/12 14:47:45;;;;;;;7.85;2.72;;;;;;;;;;5053000;28;20029;-71
2022/05/12 14:50:13;;;;;;;4.32;2.80;;;;;;;;;;5054048;28;20021;-74
2022/05/12 14:52:40;;;;;;;6.55;2.75;;;;;;;;;;5053987;28;20447;-72
2022/05/12 14:55:06;;;;;;;7.65;2.72;;;;;;;;;;5069622;28;20089;-73
2022/05/12 14:57:32;;;;;;;5.05;2.83;;;;;;;;;;5073380;28;20044;-74
2022/05/12 14:59:58;;;;;;;4.22;2.80;;;;;;;;;;5073152;28;20158;-71
2022/05/12 15:02:35;;;;;;;6.43;2.85;;;;;;;;;;5073475;28;20040;-73
2022/05/12 15:05:03;;;;;;;5.45;2.70;;;;;;;;;;5073313;28;20032;-73
2022/05/12 15:07:31;;;;;;;5.03;2.40;;;;;;;;;;5073177;28;20153;-72
2022/05/12 15:09:58;;;;;;;10.40;2.53;;;;;;;;;;5073325;28;20028;-71
2022/05/12 15:12:24;;;;;;;4.25;2.78;;;;;;;;;;5073129;28;20519;-71
2022/05/12 15:14:50;;;;;;;3.97;2.45;;;;;;;;;;5072903;28;20364;-70
2022/05/12 15:17:30;;;;;;;5.22;2.60;;;;;;;;;;5073279;28;20040;-70
2022/05/12 15:19:57;;;;;;;5.65;2.55;;;;;;;;;;5073077;28;20376;-71
2022/05/12 15:22:24;;;;;;;6.60;2.70;;;;;;;;;;5073058;28;20103;-70
2022/05/12 15:24:51;;;;;;;5.90;2.42;;;;;;;;;;5072902;28;20040;-71
2022/05/12 15:27:20;;;;;;;3.97;2.33;;;;;;;;;;5072865;28;20051;-70
2022/05/12 15:29:47;;;;;;;6.85;2.58;;;;;;;;;;5073161;28;20097;-71
2022/05/12 15:32:13;;;;;;;6.97;2.53;;;;;;;;;;5065874;28;20032;-68